sensor_id;sensor_type;location;lat;lon;timestamp;pressure;altitude;pressure_sealevel;temperature;humidity
71915;BME280;60387;49.994;14.660;2023-12-04T00:01:44;98274.88;;;-1.03;57.87
71915;BME280;60387;49.994;14.660;2023-12-04T00:04:18;98253.50;;;-1.14;57.72
71915;BME280;60387;49.994;14.660;2023-12-04T00:06:51;98257.59;;;-1.18;57.45
71915;BME280;60387;49.994;14.660;2023-12-04T00:09:24;98251.75;;;-1.27;58.00
71915;BME280;60387;49.994;14.660;2023-12-04T00:11:58;98258.69;;;-1.32;57.87
71915;BME280;60387;49.994;14.660;2023-12-04T00:14:31;98266.66;;;-1.32;58.05
71915;BME280;60387;49.994;14.660;2023-12-04T00:17:04;98263.84;;;-1.37;57.34
71915;BME280;60387;49.994;14.660;2023-12-04T00:19:38;98255.50;;;-1.41;58.25
71915;BME280;60387;49.994;14.660;2023-12-04T00:22:11;98244.66;;;-1.46;58.30
71915;BME280;60387;49.994;14.660;2023-12-04T00:24:44;98247.97;;;-1.50;57.47
71915;BME280;60387;49.994;14.660;2023-12-04T00:27:17;98256.38;;;-1.53;57.84
71915;BME280;60387;49.994;14.660;2023-12-04T00:29:51;98253.34;;;-1.63;57.92
71915;BME280;60387;49.994;14.660;2023-12-04T00:32:24;98251.09;;;-1.66;57.76
71915;BME280;60387;49.994;14.660;2023-12-04T00:34:57;98261.13;;;-1.68;58.58
71915;BME280;60387;49.994;14.660;2023-12-04T00:37:31;98259.69;;;-1.71;57.65
71915;BME280;60387;49.994;14.660;2023-12-04T00:40:05;98254.41;;;-1.71;57.83
71915;BME280;60387;49.994;14.660;2023-12-04T00:42:39;98259.09;;;-1.73;57.46
71915;BME280;60387;49.994;14.660;2023-12-04T00:45:12;98264.44;;;-1.79;57.88
71915;BME280;60387;49.994;14.660;2023-12-04T00:47:45;98274.03;;;-1.78;58.30
71915;BME280;60387;49.994;14.660;2023-12-04T00:50:19;98277.13;;;-1.81;58.22
71915;BME280;60387;49.994;14.660;2023-12-04T00:52:52;98277.72;;;-1.79;58.13
71915;BME280;60387;49.994;14.660;2023-12-04T00:55:25;98267.53;;;-1.82;58.38
71915;BME280;60387;49.994;14.660;2023-12-04T00:57:58;98273.84;;;-1.83;58.11
71915;BME280;60387;49.994;14.660;2023-12-04T01:00:32;98273.25;;;-1.85;58.53
71915;BME280;60387;49.994;14.660;2023-12-04T01:03:05;98271.03;;;-1.88;58.36
71915;BME280;60387;49.994;14.660;2023-12-04T01:05:38;98268.16;;;-1.93;58.54
71915;BME280;60387;49.994;14.660;2023-12-04T01:08:11;98270.81;;;-1.93;57.75
71915;BME280;60387;49.994;14.660;2023-12-04T01:10:45;98264.50;;;-1.99;58.59
71915;BME280;60387;49.994;14.660;2023-12-04T01:13:18;98266.16;;;-2.04;58.38
71915;BME280;60387;49.994;14.660;2023-12-04T01:15:51;98274.31;;;-2.06;57.82
71915;BME280;60387;49.994;14.660;2023-12-04T01:18:25;98275.56;;;-2.08;58.72
71915;BME280;60387;49.994;14.660;2023-12-04T01:20:58;98271.28;;;-2.09;58.67
71915;BME280;60387;49.994;14.660;2023-12-04T01:23:31;98273.13;;;-2.10;58.81
71915;BME280;60387;49.994;14.660;2023-12-04T01:26:04;98277.59;;;-2.10;58.62
71915;BME280;60387;49.994;14.660;2023-12-04T01:28:38;98280.25;;;-2.10;58.68
71915;BME280;60387;49.994;14.660;2023-12-04T01:31:11;98277.59;;;-2.10;58.88
71915;BME280;60387;49.994;14.660;2023-12-04T01:33:44;98258.84;;;-2.22;58.86
71915;BME280;60387;49.994;14.660;2023-12-04T01:36:17;98279.66;;;-2.12;58.88
71915;BME280;60387;49.994;14.660;2023-12-04T01:38:51;98293.13;;;-2.14;58.13
71915;BME280;60387;49.994;14.660;2023-12-04T01:41:24;98292.75;;;-2.17;58.86
71915;BME280;60387;49.994;14.660;2023-12-04T01:43:57;98284.38;;;-2.21;58.52
71915;BME280;60387;49.994;14.660;2023-12-04T01:46:31;98275.19;;;-2.25;58.38
71915;BME280;60387;49.994;14.660;2023-12-04T01:49:04;98282.53;;;-2.27;58.51
71915;BME280;60387;49.994;14.660;2023-12-04T01:51:37;98274.78;;;-2.28;58.64
71915;BME280;60387;49.994;14.660;2023-12-04T01:54:11;98276.63;;;-2.29;58.56
71915;BME280;60387;49.994;14.660;2023-12-04T01:56:45;98272.38;;;-2.30;58.47
71915;BME280;60387;49.994;14.660;2023-12-04T01:59:19;98262.13;;;-2.26;58.22
71915;BME280;60387;49.994;14.660;2023-12-04T02:01:53;98259.47;;;-2.26;58.49
71915;BME280;60387;49.994;14.660;2023-12-04T02:04:26;98255.19;;;-2.27;58.73
71915;BME280;60387;49.994;14.660;2023-12-04T02:07:00;98255.19;;;-2.27;58.62
71915;BME280;60387;49.994;14.660;2023-12-04T02:09:33;98257.84;;;-2.27;58.07
71915;BME280;60387;49.994;14.660;2023-12-04T02:12:07;98257.03;;;-2.28;58.57
71915;BME280;60387;49.994;14.660;2023-12-04T02:14:40;98255.63;;;-2.30;58.55
71915;BME280;60387;49.994;14.660;2023-12-04T02:17:14;98267.25;;;-2.31;58.15
71915;BME280;60387;49.994;14.660;2023-12-04T02:19:49;98261.34;;;-2.33;58.40
71915;BME280;60387;49.994;14.660;2023-12-04T02:22:22;98266.25;;;-2.37;58.52
71915;BME280;60387;49.994;14.660;2023-12-04T02:24:55;98234.66;;;-2.51;58.38
71915;BME280;60387;49.994;14.660;2023-12-04T02:27:33;98242.59;;;-2.45;58.23
71915;BME280;60387;49.994;14.660;2023-12-04T02:30:12;98250.31;;;-2.43;58.30
71915;BME280;60387;49.994;14.660;2023-12-04T02:32:47;98239.53;;;-2.48;57.85
71915;BME280;60387;49.994;14.660;2023-12-04T02:35:23;98229.94;;;-2.49;58.39
71915;BME280;60387;49.994;14.660;2023-12-04T02:37:58;98233.63;;;-2.50;58.42
71915;BME280;60387;49.994;14.660;2023-12-04T02:40:32;98232.19;;;-2.46;58.79
71915;BME280;60387;49.994;14.660;2023-12-04T02:43:05;98227.06;;;-2.48;58.53
71915;BME280;60387;49.994;14.660;2023-12-04T02:45:39;98227.47;;;-2.44;58.45
71915;BME280;60387;49.994;14.660;2023-12-04T02:48:12;98219.75;;;-2.46;58.82
71915;BME280;60387;49.994;14.660;2023-12-04T02:50:46;98220.53;;;-2.45;58.49
71915;BME280;60387;49.994;14.660;2023-12-04T02:53:19;98219.13;;;-2.41;59.20
71915;BME280;60387;49.994;14.660;2023-12-04T02:55:52;98206.28;;;-2.38;58.88
71915;BME280;60387;49.994;14.660;2023-12-04T02:58:26;98203.38;;;-2.36;58.64
71915;BME280;60387;49.994;14.660;2023-12-04T03:00:59;98214.00;;;-2.30;58.76
71915;BME280;60387;49.994;14.660;2023-12-04T03:03:32;98217.25;;;-2.28;58.92
71915;BME280;60387;49.994;14.660;2023-12-04T03:06:06;98206.66;;;-2.28;58.23
71915;BME280;60387;49.994;14.660;2023-12-04T03:08:39;98202.13;;;-2.27;58.52
71915;BME280;60387;49.994;14.660;2023-12-04T03:11:12;98197.03;;;-2.22;59.21
71915;BME280;60387;49.994;14.660;2023-12-04T03:13:46;98186.66;;;-2.30;58.69
71915;BME280;60387;49.994;14.660;2023-12-04T03:16:19;98211.50;;;-2.18;58.75
71915;BME280;60387;49.994;14.660;2023-12-04T03:18:52;98203.13;;;-2.22;58.47
71915;BME280;60387;49.994;14.660;2023-12-04T03:21:26;98204.78;;;-2.27;58.95
71915;BME280;60387;49.994;14.660;2023-12-04T03:23:59;98196.03;;;-2.28;58.36
71915;BME280;60387;49.994;14.660;2023-12-04T03:26:32;98176.03;;;-2.30;58.25
71915;BME280;60387;49.994;14.660;2023-12-04T03:29:05;98171.97;;;-2.33;58.85
71915;BME280;60387;49.994;14.660;2023-12-04T03:31:39;98175.44;;;-2.32;58.85
71915;BME280;60387;49.994;14.660;2023-12-04T03:34:12;98178.09;;;-2.32;59.05
71915;BME280;60387;49.994;14.660;2023-12-04T03:36:45;98166.66;;;-2.33;58.82
71915;BME280;60387;49.994;14.660;2023-12-04T03:39:18;98168.72;;;-2.35;58.52
71915;BME280;60387;49.994;14.660;2023-12-04T03:41:52;98167.28;;;-2.37;58.48
71915;BME280;60387;49.994;14.660;2023-12-04T03:44:25;98182.00;;;-2.41;58.39
71915;BME280;60387;49.994;14.660;2023-12-04T03:46:58;98178.94;;;-2.45;58.92
71915;BME280;60387;49.994;14.660;2023-12-04T03:49:31;98165.72;;;-2.51;58.39
71915;BME280;60387;49.994;14.660;2023-12-04T03:52:05;98176.72;;;-2.54;58.09
71915;BME280;60387;49.994;14.660;2023-12-04T03:54:38;98174.50;;;-2.64;58.01
71915;BME280;60387;49.994;14.660;2023-12-04T03:57:11;98162.69;;;-2.68;58.83
71915;BME280;60387;49.994;14.660;2023-12-04T03:59:45;98156.38;;;-2.73;58.73
71915;BME280;60387;49.994;14.660;2023-12-04T04:02:18;98156.38;;;-2.73;58.61
71915;BME280;60387;49.994;14.660;2023-12-04T04:04:51;98156.78;;;-2.76;58.47
71915;BME280;60387;49.994;14.660;2023-12-04T04:07:24;98152.47;;;-2.77;58.38
71915;BME280;60387;49.994;14.660;2023-12-04T04:09:58;98142.31;;;-2.80;59.18
71915;BME280;60387;49.994;14.660;2023-12-04T04:12:31;98142.31;;;-2.80;58.66
71915;BME280;60387;49.994;14.660;2023-12-04T04:15:05;98137.44;;;-2.83;58.56
71915;BME280;60387;49.994;14.660;2023-12-04T04:17:38;98132.75;;;-2.88;58.32
71915;BME280;60387;49.994;14.660;2023-12-04T04:20:11;98139.47;;;-2.92;58.46
71915;BME280;60387;49.994;14.660;2023-12-04T04:22:47;98139.88;;;-2.95;58.34
71915;BME280;60387;49.994;14.660;2023-12-04T04:25:21;98139.06;;;-3.02;58.82
71915;BME280;60387;49.994;14.660;2023-12-04T04:27:54;98143.97;;;-3.05;58.48
71915;BME280;60387;49.994;14.660;2023-12-04T04:30:27;98148.47;;;-3.06;58.48
71915;BME280;60387;49.994;14.660;2023-12-04T04:33:00;98146.03;;;-3.07;59.07
71915;BME280;60387;49.994;14.660;2023-12-04T04:35:34;98144.38;;;-3.08;58.30
71915;BME280;60387;49.994;14.660;2023-12-04T04:38:08;98140.31;;;-3.17;58.66
71915;BME280;60387;49.994;14.660;2023-12-04T04:40:42;98142.13;;;-3.11;59.28
71915;BME280;60387;49.994;14.660;2023-12-04T04:43:15;98131.56;;;-3.17;59.78
71915;BME280;60387;49.994;14.660;2023-12-04T04:45:48;98132.78;;;-3.13;59.42
71915;BME280;60387;49.994;14.660;2023-12-04T04:48:21;98133.38;;;-3.12;59.33
71915;BME280;60387;49.994;14.660;2023-12-04T04:50:55;98130.53;;;-3.10;59.02
71915;BME280;60387;49.994;14.660;2023-12-04T04:53:28;98130.13;;;-3.07;59.27
71915;BME280;60387;49.994;14.660;2023-12-04T04:56:01;98128.31;;;-3.07;59.44
71915;BME280;60387;49.994;14.660;2023-12-04T04:58:35;98124.00;;;-3.08;59.33
71915;BME280;60387;49.994;14.660;2023-12-04T05:01:08;98110.97;;;-3.09;59.49
71915;BME280;60387;49.994;14.660;2023-12-04T05:03:41;98134.19;;;-3.05;59.39
71915;BME280;60387;49.994;14.660;2023-12-04T05:06:15;98125.44;;;-3.05;59.20
71915;BME280;60387;49.994;14.660;2023-12-04T05:08:48;98126.84;;;-3.03;59.15
71915;BME280;60387;49.994;14.660;2023-12-04T05:11:21;98130.94;;;-3.00;59.12
71915;BME280;60387;49.994;14.660;2023-12-04T05:13:55;98121.97;;;-2.99;59.17
71915;BME280;60387;49.994;14.660;2023-12-04T05:16:28;98128.88;;;-2.98;58.98
71915;BME280;60387;49.994;14.660;2023-12-04T05:19:01;98125.22;;;-2.97;59.59
71915;BME280;60387;49.994;14.660;2023-12-04T05:21:35;98125.22;;;-2.97;59.12
71915;BME280;60387;49.994;14.660;2023-12-04T05:24:08;98132.13;;;-2.96;58.96
71915;BME280;60387;49.994;14.660;2023-12-04T05:26:42;98130.94;;;-3.00;58.76
71915;BME280;60387;49.994;14.660;2023-12-04T05:29:16;98124.19;;;-2.96;59.04
71915;BME280;60387;49.994;14.660;2023-12-04T05:31:49;98126.03;;;-2.97;58.59
71915;BME280;60387;49.994;14.660;2023-12-04T05:34:23;98125.41;;;-2.99;59.37
71915;BME280;60387;49.994;14.660;2023-12-04T05:36:56;98121.97;;;-2.99;58.79
71915;BME280;60387;49.994;14.660;2023-12-04T05:39:29;98124.81;;;-3.01;59.23
71915;BME280;60387;49.994;14.660;2023-12-04T05:42:03;98114.63;;;-3.04;59.30
71915;BME280;60387;49.994;14.660;2023-12-04T05:44:36;98121.16;;;-3.06;59.26
71915;BME280;60387;49.994;14.660;2023-12-04T05:47:09;98113.81;;;-3.04;59.89
71915;BME280;60387;49.994;14.660;2023-12-04T05:49:42;98108.72;;;-3.06;58.56
71915;BME280;60387;49.994;14.660;2023-12-04T05:52:16;98117.91;;;-3.08;58.87
71915;BME280;60387;49.994;14.660;2023-12-04T05:54:49;98109.34;;;-3.10;58.95
71915;BME280;60387;49.994;14.660;2023-12-04T05:57:22;98101.00;;;-3.13;58.61
71915;BME280;60387;49.994;14.660;2023-12-04T05:59:55;98088.56;;;-3.19;58.71
71915;BME280;60387;49.994;14.660;2023-12-04T06:02:29;98085.09;;;-3.20;58.45
71915;BME280;60387;49.994;14.660;2023-12-04T06:05:02;98086.13;;;-3.21;58.64
71915;BME280;60387;49.994;14.660;2023-12-04T06:07:36;98088.16;;;-3.23;59.07
71915;BME280;60387;49.994;14.660;2023-12-04T06:10:10;98067.78;;;-3.29;58.57
71915;BME280;60387;49.994;14.660;2023-12-04T06:12:43;98069.44;;;-3.34;58.39
71915;BME280;60387;49.994;14.660;2023-12-04T06:15:16;98075.56;;;-3.34;58.63
71915;BME280;60387;49.994;14.660;2023-12-04T06:17:50;98067.00;;;-3.36;58.21
71915;BME280;60387;49.994;14.660;2023-12-04T06:20:23;98065.34;;;-3.37;58.97
71915;BME280;60387;49.994;14.660;2023-12-04T06:22:56;98071.91;;;-3.39;59.11
71915;BME280;60387;49.994;14.660;2023-12-04T06:25:30;98067.00;;;-3.36;59.72
71915;BME280;60387;49.994;14.660;2023-12-04T06:28:04;98067.78;;;-3.29;59.71
71915;BME280;60387;49.994;14.660;2023-12-04T06:30:38;98069.81;;;-3.24;58.93
71915;BME280;60387;49.994;14.660;2023-12-04T06:33:11;98062.28;;;-3.27;58.78
71915;BME280;60387;49.994;14.660;2023-12-04T06:35:45;98074.13;;;-3.23;59.04
71915;BME280;60387;49.994;14.660;2023-12-04T06:38:19;98067.19;;;-3.18;58.65
71915;BME280;60387;49.994;14.660;2023-12-04T06:40:57;98071.22;;;-3.16;59.24
71915;BME280;60387;49.994;14.660;2023-12-04T06:43:30;98076.13;;;-3.06;59.26
71915;BME280;60387;49.994;14.660;2023-12-04T06:46:04;98070.19;;;-3.02;60.19
71915;BME280;60387;49.994;14.660;2023-12-04T06:48:38;98067.53;;;-2.95;59.82
71915;BME280;60387;49.994;14.660;2023-12-04T06:51:11;98068.53;;;-2.83;59.23
71915;BME280;60387;49.994;14.660;2023-12-04T06:53:45;98073.59;;;-2.75;60.13
71915;BME280;60387;49.994;14.660;2023-12-04T06:56:18;98070.72;;;-2.67;59.52
71915;BME280;60387;49.994;14.660;2023-12-04T06:58:51;98070.09;;;-2.63;59.61
71915;BME280;60387;49.994;14.660;2023-12-04T07:01:25;98060.47;;;-2.57;59.23
71915;BME280;60387;49.994;14.660;2023-12-04T07:03:58;98056.81;;;-2.56;58.67
71915;BME280;60387;49.994;14.660;2023-12-04T07:06:31;98043.53;;;-2.56;59.12
71915;BME280;60387;49.994;14.660;2023-12-04T07:09:04;98048.84;;;-2.56;59.09
71915;BME280;60387;49.994;14.660;2023-12-04T07:11:38;98052.69;;;-2.52;58.75
71915;BME280;60387;49.994;14.660;2023-12-04T07:14:11;98051.69;;;-2.51;58.41
71915;BME280;60387;49.994;14.660;2023-12-04T07:16:44;98052.88;;;-2.47;58.81
71915;BME280;60387;49.994;14.660;2023-12-04T07:19:18;98040.84;;;-2.50;59.77
71915;BME280;60387;49.994;14.660;2023-12-04T07:21:51;98050.44;;;-2.42;58.77
71915;BME280;60387;49.994;14.660;2023-12-04T07:24:24;98041.00;;;-2.38;59.18
71915;BME280;60387;49.994;14.660;2023-12-04T07:26:57;98035.03;;;-2.27;59.03
71915;BME280;60387;49.994;14.660;2023-12-04T07:29:31;98032.75;;;-2.17;59.29
71915;BME280;60387;49.994;14.660;2023-12-04T07:32:04;98024.63;;;-1.98;59.73
71915;BME280;60387;49.994;14.660;2023-12-04T07:34:38;98022.16;;;-1.68;59.81
71915;BME280;60387;49.994;14.660;2023-12-04T07:37:11;98017.25;;;-1.40;59.92
71915;BME280;60387;49.994;14.660;2023-12-04T07:39:44;98022.44;;;-1.09;59.55
71915;BME280;60387;49.994;14.660;2023-12-04T07:42:18;98014.75;;;-0.81;59.34
71915;BME280;60387;49.994;14.660;2023-12-04T07:44:51;98018.81;;;-0.61;59.11
71915;BME280;60387;49.994;14.660;2023-12-04T07:47:24;98024.19;;;-0.49;58.04
71915;BME280;60387;49.994;14.660;2023-12-04T07:49:57;98018.63;;;-0.30;58.06
71915;BME280;60387;49.994;14.660;2023-12-04T07:52:31;98024.72;;;-0.11;57.61
71915;BME280;60387;49.994;14.660;2023-12-04T07:55:04;98037.28;;;0.11;57.15
71915;BME280;60387;49.994;14.660;2023-12-04T07:57:38;98029.47;;;0.39;57.87
71915;BME280;60387;49.994;14.660;2023-12-04T08:00:11;98015.91;;;0.63;55.50
71915;BME280;60387;49.994;14.660;2023-12-04T08:02:44;98010.13;;;0.89;55.88
71915;BME280;60387;49.994;14.660;2023-12-04T08:05:18;98012.34;;;1.15;55.10
71915;BME280;60387;49.994;14.660;2023-12-04T08:07:51;98013.44;;;1.42;55.73
71915;BME280;60387;49.994;14.660;2023-12-04T08:10:24;98006.56;;;1.74;55.56
71915;BME280;60387;49.994;14.660;2023-12-04T08:12:58;98010.75;;;1.98;53.84
71915;BME280;60387;49.994;14.660;2023-12-04T08:15:31;98010.56;;;2.16;53.35
71915;BME280;60387;49.994;14.660;2023-12-04T08:18:04;98011.97;;;2.35;53.77
71915;BME280;60387;49.994;14.660;2023-12-04T08:20:37;98010.69;;;2.54;52.22
71915;BME280;60387;49.994;14.660;2023-12-04T08:23:11;98012.78;;;2.69;52.28
71915;BME280;60387;49.994;14.660;2023-12-04T08:25:44;98006.28;;;2.81;51.52
71915;BME280;60387;49.994;14.660;2023-12-04T08:28:17;98012.44;;;2.98;52.21
71915;BME280;60387;49.994;14.660;2023-12-04T08:30:50;98008.41;;;3.17;51.29
71915;BME280;60387;49.994;14.660;2023-12-04T08:33:24;97995.66;;;3.24;50.34
71915;BME280;60387;49.994;14.660;2023-12-04T08:35:57;98000.66;;;3.37;49.54
71915;BME280;60387;49.994;14.660;2023-12-04T08:38:30;97995.03;;;3.38;49.32
71915;BME280;60387;49.994;14.660;2023-12-04T08:41:04;97990.75;;;3.59;50.09
71915;BME280;60387;49.994;14.660;2023-12-04T08:43:37;97983.00;;;3.84;50.76
71915;BME280;60387;49.994;14.660;2023-12-04T08:46:14;97999.03;;;4.05;49.57
71915;BME280;60387;49.994;14.660;2023-12-04T08:48:47;98002.97;;;4.24;48.89
71915;BME280;60387;49.994;14.660;2023-12-04T08:51:20;97999.09;;;4.42;49.11
71915;BME280;60387;49.994;14.660;2023-12-04T08:53:54;97990.59;;;4.50;47.50
71915;BME280;60387;49.994;14.660;2023-12-04T08:56:27;97986.38;;;4.59;46.84
71915;BME280;60387;49.994;14.660;2023-12-04T08:59:00;97987.16;;;4.59;46.54
71915;BME280;60387;49.994;14.660;2023-12-04T09:01:33;97981.63;;;4.71;46.58
71915;BME280;60387;49.994;14.660;2023-12-04T09:04:08;97976.25;;;4.71;45.84
71915;BME280;60387;49.994;14.660;2023-12-04T09:06:41;97981.97;;;4.79;46.75
71915;BME280;60387;49.994;14.660;2023-12-04T09:09:14;97980.91;;;4.80;46.58
71915;BME280;60387;49.994;14.660;2023-12-04T09:11:48;97978.56;;;4.94;48.30
71915;BME280;60387;49.994;14.660;2023-12-04T09:14:21;97970.06;;;5.07;47.86
71915;BME280;60387;49.994;14.660;2023-12-04T09:16:54;97968.78;;;5.14;45.66
71915;BME280;60387;49.994;14.660;2023-12-04T09:19:27;97969.56;;;5.15;46.73
71915;BME280;60387;49.994;14.660;2023-12-04T09:22:01;97966.91;;;5.20;47.56
71915;BME280;60387;49.994;14.660;2023-12-04T09:24:34;97968.28;;;5.22;47.16
71915;BME280;60387;49.994;14.660;2023-12-04T09:27:07;97961.50;;;5.15;47.44
71915;BME280;60387;49.994;14.660;2023-12-04T09:29:41;97959.41;;;5.22;48.61
71915;BME280;60387;49.994;14.660;2023-12-04T09:32:14;97958.38;;;5.28;48.07
71915;BME280;60387;49.994;14.660;2023-12-04T09:34:48;97949.56;;;5.37;48.02
71915;BME280;60387;49.994;14.660;2023-12-04T09:37:21;97944.50;;;5.56;49.32
71915;BME280;60387;49.994;14.660;2023-12-04T09:39:54;97944.00;;;5.74;47.97
71915;BME280;60387;49.994;14.660;2023-12-04T09:42:29;97942.50;;;5.93;48.56
71915;BME280;60387;49.994;14.660;2023-12-04T09:45:03;97938.22;;;6.12;48.87
71915;BME280;60387;49.994;14.660;2023-12-04T09:47:37;97933.94;;;6.45;49.21
71915;BME280;60387;49.994;14.660;2023-12-04T09:50:10;97936.06;;;6.78;48.56
71915;BME280;60387;49.994;14.660;2023-12-04T09:52:44;97921.50;;;6.94;47.22
71915;BME280;60387;49.994;14.660;2023-12-04T09:55:17;97930.88;;;7.12;48.11
71915;BME280;60387;49.994;14.660;2023-12-04T09:57:51;97930.03;;;7.21;47.15
71915;BME280;60387;49.994;14.660;2023-12-04T10:00:24;97915.53;;;7.12;45.14
71915;BME280;60387;49.994;14.660;2023-12-04T10:02:58;97917.72;;;6.90;45.05
71915;BME280;60387;49.994;14.660;2023-12-04T10:05:31;97909.44;;;6.67;46.36
71915;BME280;60387;49.994;14.660;2023-12-04T10:08:05;97911.88;;;6.53;45.80
71915;BME280;60387;49.994;14.660;2023-12-04T10:10:38;97888.47;;;6.39;46.59
71915;BME280;60387;49.994;14.660;2023-12-04T10:13:11;97884.16;;;6.38;46.31
71915;BME280;60387;49.994;14.660;2023-12-04T10:15:51;97877.44;;;6.35;46.30
71915;BME280;60387;49.994;14.660;2023-12-04T10:18:28;97865.31;;;6.38;45.69
71915;BME280;60387;49.994;14.660;2023-12-04T10:21:01;97863.97;;;6.45;45.87
71915;BME280;60387;49.994;14.660;2023-12-04T10:23:42;97860.19;;;6.61;46.11
71915;BME280;60387;49.994;14.660;2023-12-04T10:26:15;97851.53;;;6.74;46.37
71915;BME280;60387;49.994;14.660;2023-12-04T10:29:00;97847.72;;;6.90;46.58
71915;BME280;60387;49.994;14.660;2023-12-04T10:31:34;97829.91;;;7.04;47.09
71915;BME280;60387;49.994;14.660;2023-12-04T10:34:08;97817.47;;;7.13;44.46
71915;BME280;60387;49.994;14.660;2023-12-04T10:36:41;97830.84;;;7.33;45.31
71915;BME280;60387;49.994;14.660;2023-12-04T10:39:17;97814.66;;;7.33;45.11
71915;BME280;60387;49.994;14.660;2023-12-04T10:41:59;97823.25;;;7.40;42.35
71915;BME280;60387;49.994;14.660;2023-12-04T10:44:32;97817.88;;;7.35;41.84
71915;BME280;60387;49.994;14.660;2023-12-04T10:47:05;97818.19;;;7.34;42.32
71915;BME280;60387;49.994;14.660;2023-12-04T10:49:39;97813.88;;;7.28;41.47
71915;BME280;60387;49.994;14.660;2023-12-04T10:52:12;97819.66;;;7.06;42.33
71915;BME280;60387;49.994;14.660;2023-12-04T10:54:49;97816.97;;;7.01;42.10
71915;BME280;60387;49.994;14.660;2023-12-04T10:57:27;97807.31;;;6.95;43.82
71915;BME280;60387;49.994;14.660;2023-12-04T11:00:05;97815.88;;;7.07;42.83
71915;BME280;60387;49.994;14.660;2023-12-04T11:02:43;97812.09;;;7.13;43.01
71915;BME280;60387;49.994;14.660;2023-12-04T11:05:19;97811.75;;;7.25;42.28
71915;BME280;60387;49.994;14.660;2023-12-04T11:08:02;97816.34;;;7.24;41.70
71915;BME280;60387;49.994;14.660;2023-12-04T11:10:45;97822.53;;;7.25;42.34
71915;BME280;60387;49.994;14.660;2023-12-04T11:13:23;97801.00;;;7.15;42.18
71915;BME280;60387;49.994;14.660;2023-12-04T11:16:02;97796.50;;;7.05;43.02
71915;BME280;60387;49.994;14.660;2023-12-04T11:18:43;97799.22;;;7.00;43.90
71915;BME280;60387;49.994;14.660;2023-12-04T11:21:18;97798.69;;;6.98;44.07
71915;BME280;60387;49.994;14.660;2023-12-04T11:23:53;97782.53;;;6.93;44.48
71915;BME280;60387;49.994;14.660;2023-12-04T11:26:27;97791.75;;;6.87;43.31
71915;BME280;60387;49.994;14.660;2023-12-04T11:29:01;97780.19;;;6.77;44.25
71915;BME280;60387;49.994;14.660;2023-12-04T11:31:36;97774.56;;;6.68;44.33
71915;BME280;60387;49.994;14.660;2023-12-04T11:34:09;97763.31;;;6.61;43.62
71915;BME280;60387;49.994;14.660;2023-12-04T11:36:43;97768.69;;;6.61;44.54
71915;BME280;60387;49.994;14.660;2023-12-04T11:39:18;97771.16;;;6.43;43.06
71915;BME280;60387;49.994;14.660;2023-12-04T11:41:51;97760.69;;;6.31;43.94
71915;BME280;60387;49.994;14.660;2023-12-04T11:44:25;97751.59;;;6.08;43.07
71915;BME280;60387;49.994;14.660;2023-12-04T11:47:06;97745.16;;;5.74;45.06
71915;BME280;60387;49.994;14.660;2023-12-04T11:49:39;97738.44;;;5.41;44.92
71915;BME280;60387;49.994;14.660;2023-12-04T11:52:12;97709.66;;;4.97;44.84
71915;BME280;60387;49.994;14.660;2023-12-04T11:55:05;97726.97;;;4.59;45.37
71915;BME280;60387;49.994;14.660;2023-12-04T11:57:39;97722.84;;;4.32;45.24
71915;BME280;60387;49.994;14.660;2023-12-04T12:05:25;97708.38;;;3.45;46.79
71915;BME280;60387;49.994;14.660;2023-12-04T12:08:05;97695.38;;;3.27;46.97
71915;BME280;60387;49.994;14.660;2023-12-04T12:10:39;97693.66;;;3.11;47.61
71915;BME280;60387;49.994;14.660;2023-12-04T12:13:12;97671.59;;;2.99;47.50
71915;BME280;60387;49.994;14.660;2023-12-04T12:15:48;97672.50;;;2.83;47.92
71915;BME280;60387;49.994;14.660;2023-12-04T12:18:22;97654.25;;;2.75;48.12
71915;BME280;60387;49.994;14.660;2023-12-04T12:20:55;97664.38;;;2.73;48.27
71915;BME280;60387;49.994;14.660;2023-12-04T12:23:28;97654.75;;;2.72;48.42
71915;BME280;60387;49.994;14.660;2023-12-04T12:26:02;97631.09;;;2.59;48.79
71915;BME280;60387;49.994;14.660;2023-12-04T12:28:35;97655.75;;;2.66;48.74
71915;BME280;60387;49.994;14.660;2023-12-04T12:31:09;97648.03;;;2.70;49.02
71915;BME280;60387;49.994;14.660;2023-12-04T12:33:42;97632.38;;;2.78;48.93
71915;BME280;60387;49.994;14.660;2023-12-04T12:36:16;97631.13;;;2.91;48.88
71915;BME280;60387;49.994;14.660;2023-12-04T12:38:49;97636.41;;;3.12;48.69
71915;BME280;60387;49.994;14.660;2023-12-04T12:41:22;97641.88;;;3.32;48.71
71915;BME280;60387;49.994;14.660;2023-12-04T12:43:56;97634.47;;;3.44;48.36
71915;BME280;60387;49.994;14.660;2023-12-04T12:46:29;97631.19;;;3.32;48.45
71915;BME280;60387;49.994;14.660;2023-12-04T12:49:02;97638.50;;;3.41;48.01
71915;BME280;60387;49.994;14.660;2023-12-04T12:51:35;97625.34;;;3.40;48.24
71915;BME280;60387;49.994;14.660;2023-12-04T12:54:09;97616.19;;;3.31;48.33
71915;BME280;60387;49.994;14.660;2023-12-04T12:56:42;97608.03;;;3.16;48.60
71915;BME280;60387;49.994;14.660;2023-12-04T12:59:16;97606.69;;;3.13;48.39
71915;BME280;60387;49.994;14.660;2023-12-04T13:01:49;97604.25;;;3.07;48.61
71915;BME280;60387;49.994;14.660;2023-12-04T13:04:22;97607.94;;;3.01;49.00
71915;BME280;60387;49.994;14.660;2023-12-04T13:06:55;97603.88;;;2.94;48.70
71915;BME280;60387;49.994;14.660;2023-12-04T13:09:30;97606.06;;;3.02;48.75
71915;BME280;60387;49.994;14.660;2023-12-04T13:12:06;97620.59;;;3.10;49.13
71915;BME280;60387;49.994;14.660;2023-12-04T13:14:40;97610.72;;;3.16;48.77
71915;BME280;60387;49.994;14.660;2023-12-04T13:17:13;97605.97;;;3.23;48.89
71915;BME280;60387;49.994;14.660;2023-12-04T13:19:46;97608.38;;;3.24;48.62
71915;BME280;60387;49.994;14.660;2023-12-04T13:22:19;97611.84;;;3.25;48.83
71915;BME280;60387;49.994;14.660;2023-12-04T13:24:53;97600.06;;;3.21;48.59
71915;BME280;60387;49.994;14.660;2023-12-04T13:27:26;97608.03;;;3.16;48.79
71915;BME280;60387;49.994;14.660;2023-12-04T13:29:59;97603.47;;;3.11;49.27
71915;BME280;60387;49.994;14.660;2023-12-04T13:32:32;97600.47;;;3.03;48.98
71915;BME280;60387;49.994;14.660;2023-12-04T13:35:06;97594.47;;;2.91;48.75